Nearby METAR Reports

 

KEWB - New Bedford, Massachusetts, USA
Distance from station: ESE 9mi, 15km
Updated: Mon, 19-Apr-2021 12:53am EDT
Overcast
Overcast
 Wind from calm
Wind: Calm
Temperature: 45°F , 7°C
Dew Point: 39°F , 4°C
Humidity: 81%
Barometer: 29.81 inHg , 1009.5 hPa
Clouds: Overcast
Visibility: 10 miles , 16 km
Cloud details: Partly cloudy 7000 ft
Overcast 11000 ft
2021/04/19 04:53 KEWB 190453Z 00000KT 10SM SCT070 OVC110 07/04 A2981 RMK AO2 SLP095 T00670039 401610022
KTAN - Taunton, Massachusetts, USA
Distance from station: NNE 11mi, 18km
Updated: Mon, 19-Apr-2021 12:52am EDT
Overcast
Overcast
 Wind from calm
Wind: Calm
Temperature: 43°F , 6°C
Dew Point: 39°F , 4°C
Humidity: 87%
Barometer: 29.82 inHg , 1009.8 hPa
Clouds: Overcast
Visibility: 10 miles , 16 km
Cloud details: Overcast 12000 ft
2021/04/19 04:52 KTAN 190452Z AUTO 00000KT 10SM OVC120 06/04 A2982 RMK AO2 SLP097 T00610044 401610028
 
KPVD - Providence/Green, Rhode Island, USA
Distance from station: W 16mi, 26km
Updated: Mon, 19-Apr-2021 12:51am EDT
Overcast
Overcast
 Wind from W
Wind: W 5 mph , 7 km/h
Temperature: 52°F , 11°C
Dew Point: 39°F , 4°C
Humidity: 62%
Barometer: 29.82 inHg , 1009.8 hPa
Clouds: Overcast
Visibility: 10 miles , 16 km
Cloud details: Partly cloudy 9500 ft
Overcast 12000 ft
2021/04/19 04:51 KPVD 190451Z 27004KT 10SM SCT095 OVC120 11/04 A2982 RMK AO2 SLP099 T01060039 401720056
KUUU - Newport, Rhode Island, USA
Distance from station: SSW 16mi, 27km
Updated: Mon, 19-Apr-2021 12:53am EDT
Overcast
Overcast
 Wind from calm
Wind: Calm
Temperature: 48°F , 9°C
Dew Point: 39°F , 4°C
Humidity: 71%
Barometer: 29.82 inHg , 1009.8 hPa
Clouds: Overcast
Visibility: 10 miles , 16 km
Cloud details: Overcast 12000 ft
2021/04/19 04:53 KUUU 190453Z AUTO 00000KT 10SM OVC120 09/04 A2982 RMK AO2 SLP097 T00940039 401330044
 
KOQU - N. Kingston/Quon, Rhode Island, USA
Distance from station: WSW 18mi, 29km
Updated: Sun, 18-Apr-2021 5:50pm EDT
NOT Current
Mostly cloudy
Mostly cloudy
 Wind from WSW
Wind: WSW 16 mph , 26 km/h
Temperature: 59°F , 15°C
Dew Point: 37°F , 3°C
Humidity: 45%
Barometer: 29.74 inHg , 1007.1 hPa
Clouds: Mostly cloudy
Visibility: 10 miles , 16 km
Cloud details: Mostly cloudy 6500 ft
2021/04/18 21:50 KOQU 182150Z 24014KT 10SM BKN065 15/03 A2974 RMK LAST
KPYM - Plymouth, Massachusetts, USA
Distance from station: ENE 23mi, 37km
Updated: Mon, 19-Apr-2021 12:52am EDT
Overcast
Overcast
 Wind from calm
Wind: Calm
Temperature: 43°F , 6°C
Dew Point: 39°F , 4°C
Humidity: 87%
Barometer: 29.81 inHg , 1009.5 hPa
Clouds: Overcast
Visibility: 10 miles , 16 km
Cloud details: Few Clouds 7500 ft
Overcast 11000 ft
2021/04/19 04:52 KPYM 190452Z AUTO 00000KT 10SM FEW075 OVC110 06/04 A2981 RMK AO2 SLP095 T00560044 401560050
 
KSFZ - Pawtucket, Rhode Island, USA
Distance from station: WNW 23mi, 38km
Updated: Mon, 19-Apr-2021 12:56am EDT
Mostly cloudy
Mostly cloudy
 Wind from W
Wind: W 3 mph , 6 km/h
Temperature: 46°F , 8°C
Dew Point: 39°F , 4°C
Humidity: 76%
Barometer: 29.82 inHg , 1009.8 hPa
Clouds: Mostly cloudy
Visibility: 10 miles , 16 km
Cloud details: Mostly cloudy 9000 ft
2021/04/19 04:56 KSFZ 190456Z AUTO 26003KT 10SM BKN090 08/04 A2982 RMK AO2 SLP107 T00830039 401560028 $
KOWD - Norwood, Massachusetts, USA
Distance from station: N 31mi, 50km
Updated: Mon, 19-Apr-2021 12:53am EDT
Overcast
Overcast
 Wind from calm
Wind: Calm
Temperature: 48°F , 9°C
Dew Point: 41°F , 5°C
Humidity: 76%
Barometer: 29.82 inHg , 1009.8 hPa
Clouds: Overcast
Visibility: 10 miles , 16 km
Cloud details: Mostly cloudy 6000 ft
Overcast 12000 ft
2021/04/19 04:53 KOWD 190453Z AUTO 00000KT 10SM BKN060 OVC120 09/05 A2982 RMK AO2 SLP097 T00890050 401720061
 
KFMH - Falmouth/Otis Ab, Massachusetts, USA
Distance from station: ESE 32mi, 51km
Updated: Mon, 19-Apr-2021 12:45am EDT
Partly cloudy
Partly cloudy
 Wind from WSW
Wind: WSW 6 mph , 9 km/h
Temperature: 39°F , 4°C
Wind Chill: 35°F , 2°C
Dew Point: 39°F , 4°C
Humidity: 100%
Barometer: 29.82 inHg , 1009.8 hPa
Clouds: Partly cloudy
Visibility: 10 miles , 16 km
Cloud details: Partly cloudy 6000 ft
2021/04/19 04:45 KFMH 190445Z 24005KT 10SM SCT060 04/04 A2982
KMQE - East Milton, Massachusetts, USA
Distance from station: N 33mi, 53km
Updated: Mon, 19-Apr-2021 12:51am EDT

 Wind from WNW
Wind: WNW 6 mph , 9 km/h
Temperature: 48°F , 9°C
Wind Chill: 45°F , 7°C
Dew Point: 37°F , 3°C
Humidity: 66%
Barometer: 29.81 inHg , 1009.5 hPa
2021/04/19 04:51 KMQE 190451Z AUTO 29005KT 09/03 A2981 RMK AO1 SLP104 T00890028 401500039
 
KGHG - Marshfield, Massachusetts, USA
Distance from station: NE 34mi, 55km
Updated: Mon, 19-Apr-2021 12:55am EDT
Overcast
Overcast
 Wind from calm
Wind: Calm
Temperature: 43°F , 6°C
Dew Point: 43°F , 6°C
Humidity: 100%
Barometer: 29.81 inHg , 1009.5 hPa
Clouds: Overcast
Visibility: 10 miles , 16 km
Cloud details: Mostly cloudy 6000 ft
Overcast 7000 ft
2021/04/19 04:55 KGHG 190455Z AUTO 00000KT 10SM BKN060 OVC070 06/06 A2981 RMK AO2 TSNO
KMVY - Marthas Vineyard, Massachusetts, USA
Distance from station: SE 35mi, 56km
Updated: Mon, 19-Apr-2021 12:53am EDT
Few Clouds
Few Clouds
 Wind from W
Wind: W 6 mph , 9 km/h
Temperature: 46°F , 8°C
Wind Chill: 43°F , 6°C
Dew Point: 43°F , 6°C
Humidity: 87%
Barometer: 29.83 inHg , 1010.2 hPa
Clouds: Few Clouds
Visibility: 10 miles , 16 km
Cloud details: Few Clouds 11000 ft
2021/04/19 04:53 KMVY 190453Z AUTO 26005KT 10SM FEW110 08/06 A2983 RMK AO2 SLP100 T00780056 401440022
 
KBOS - Boston, Massachusetts, USA
Distance from station: N 44mi, 71km
Updated: Mon, 19-Apr-2021 12:54am EDT
Overcast
Overcast
 Wind from S
Wind: S 6 mph , 9 km/h
Temperature: 48°F , 9°C
Wind Chill: 45°F , 7°C
Dew Point: 39°F , 4°C
Humidity: 71%
Barometer: 29.82 inHg , 1009.8 hPa
Clouds: Overcast
Visibility: 10 miles , 16 km
Cloud details: Few Clouds 7000 ft
Overcast 12000 ft
2021/04/19 04:54 KBOS 190454Z 18005KT 10SM FEW070 OVC120 09/04 A2982 RMK AO2 SLP098 T00890044 401720067
KHYA - Hyannis, Massachusetts, USA
Distance from station: E 44mi, 71km
Updated: Mon, 19-Apr-2021 12:56am EDT
Clear
Clear
 Wind from calm
Wind: Calm
Temperature: 41°F , 5°C
Dew Point: 37°F , 3°C
Humidity: 87%
Barometer: 29.81 inHg , 1009.5 hPa
Clouds: Clear
Visibility: 10 miles , 16 km
2021/04/19 04:56 KHYA 190456Z AUTO 00000KT 10SM CLR 05/03 A2981 RMK AO2 SLP094 T00500028 401440050
 
KWST - Westerly, Rhode Island, USA
Distance from station: SW 44mi, 71km
Updated: Mon, 19-Apr-2021 12:53am EDT
Mostly cloudy
Mostly cloudy
 Wind from WSW
Wind: WSW 3 mph , 6 km/h
Temperature: 46°F , 8°C
Dew Point: 43°F , 6°C
Humidity: 87%
Barometer: 29.83 inHg , 1010.2 hPa
Clouds: Mostly cloudy
Visibility: 10 miles , 16 km
Cloud details: Mostly cloudy 12000 ft
2021/04/19 04:53 KWST 190453Z AUTO 25003KT 10SM BKN120 08/06 A2983 RMK AO2 SLP103 T00830056 401280017
KBID - Block Island, Rhode Island, USA
Distance from station: SSW 46mi, 74km
Updated: Mon, 19-Apr-2021 12:56am EDT
Overcast
Overcast
 Wind from W
Wind: W 8 mph , 13 km/h
Temperature: 46°F , 8°C
Wind Chill: 42°F , 6°C
Dew Point: 43°F , 6°C
Humidity: 87%
Barometer: 29.84 inHg , 1010.5 hPa
Clouds: Overcast
Visibility: 10 miles , 16 km
Cloud details: Overcast 11000 ft
2021/04/19 04:56 KBID 190456Z AUTO 26007KT 10SM OVC110 08/06 A2984 RMK AO2 SLP107 T00780061